Weather History for KLNP - September, 2013

Change the Weather History Date:

Friday, September 13, 2013

  Actual Average Record
Temperature  
Mean Temperature 60 °F -  
Max Temperature 68 °F 73 °F 91 °F (1998)
Min Temperature 51 °F 53 °F 15 °F (2002)
Degree Days  
Heating Degree Days 4    
Growing Degree Days 10 (Base 50)    
Moisture  
Dew Point 56 °F    
Average Humidity 82    
Maximum Humidity 100    
Minimum Humidity 52    
Precipitation  
Precipitation 0.00 in - - ()
Sea Level Pressure  
Sea Level Pressure 30.01 in    
Wind  
Wind Speed 7 mph (NW)    
Max Wind Speed 12 mph    
Max Gust Speed 18 mph    
Visibility 8 miles    
Events Fog    
Averages and records for this station are not official NWS values.
T = Trace of Precipitation, MM = Missing Value Source: NWS Daily Summary

Daily Weather History Graph

Daily Weather History Graph

Search for Another Location

Airport or City:

Trip Planner

Search our weather history database for the weather conditions in past years. The results will help you decide how hot, cold, wet, or windy it might be!

Date:

Astronomy

Sep. 13, 2013 Rise Set
Actual Time 7:10 AM EDT 7:40 PM EDT
Civil Twilight 6:44 AM EDT 8:06 PM EDT
Nautical Twilight 6:14 AM EDT 8:37 PM EDT
Astronomical Twilight 5:42 AM EDT 9:08 PM EDT
Moon 3:23 PM EDT (9/13) 12:45 AM EDT (9/13)
Length of Visible Light 13h 21m
Length of Day
12h 29m
First Quarter, 61% of the Moon is Illuminated
Sep 13
First Quarter
Sep 19
Full
Sep 26
Last Quarter
Oct 4
New
Oct 11
First Quarter

Hourly Weather History & Observations

Time (EDT) Temp. Dew Point Humidity Pressure Visibility Wind Dir Wind Speed Gust Speed Precip Events Conditions
12:15 AM 62.6 °F 62.6 °F 100% 30.01 in 5.0 mi SW 4.6 mph - N/A   Overcast
12:35 AM 62.6 °F 62.6 °F 100% 30.00 in 3.0 mi SW 4.6 mph - N/A   Scattered Clouds
12:55 AM 62.6 °F 62.6 °F 100% 30.00 in 3.0 mi SW 5.8 mph - N/A   Clear
1:15 AM 62.6 °F 62.6 °F 100% 29.98 in 1.8 mi SW 8.1 mph - N/A   Scattered Clouds
1:35 AM 62.6 °F 62.6 °F 100% 29.98 in 4.0 mi West 5.8 mph - N/A   Clear
1:55 AM 62.6 °F 62.6 °F 100% 29.99 in 3.0 mi West 5.8 mph - N/A   Mostly Cloudy
2:15 AM 62.6 °F 62.6 °F 100% 29.98 in 0.5 mi WSW 8.1 mph - N/A Fog Fog
2:35 AM 62.6 °F 62.6 °F 100% 29.99 in 1.2 mi West 9.2 mph - N/A   Overcast
2:55 AM 62.6 °F 62.6 °F 100% 30.00 in 3.0 mi West 5.8 mph - N/A   Overcast
3:15 AM 62.6 °F 62.6 °F 100% 29.98 in 7.0 mi West 5.8 mph - N/A   Overcast
3:35 AM 62.6 °F 62.6 °F 100% 29.98 in 4.0 mi SW 5.8 mph - N/A   Mostly Cloudy
3:55 AM 62.6 °F 62.6 °F 100% 29.98 in 0.5 mi WSW 5.8 mph - N/A Fog Fog
4:15 AM 62.6 °F 62.6 °F 100% 29.98 in 7.0 mi West 3.5 mph - N/A   Overcast
4:35 AM 62.6 °F 62.6 °F 100% 29.98 in 10.0 mi West 4.6 mph - N/A   Overcast
4:55 AM 62.6 °F 62.6 °F 100% 29.98 in 10.0 mi WSW 5.8 mph - N/A   Overcast
5:15 AM 62.6 °F 62.6 °F 100% 29.98 in 10.0 mi WNW 5.8 mph - N/A   Overcast
5:35 AM 62.6 °F 62.6 °F 100% 29.98 in 7.0 mi WNW 4.6 mph - N/A   Overcast
5:55 AM 62.6 °F 62.6 °F 100% 29.98 in 7.0 mi NNW 5.8 mph - N/A   Overcast
6:15 AM 62.6 °F 62.6 °F 100% 29.98 in 10.0 mi NW 4.6 mph - N/A   Overcast
6:35 AM 62.6 °F 62.6 °F 100% 29.98 in 10.0 mi NNW 5.8 mph - N/A   Overcast
6:55 AM 60.8 °F 60.8 °F 100% 29.98 in 7.0 mi NW 5.8 mph - N/A   Overcast
7:15 AM 60.8 °F 60.8 °F 100% 30.00 in 7.0 mi NW 5.8 mph - N/A   Overcast
7:35 AM 60.8 °F 60.8 °F 100% 30.00 in 7.0 mi NNW 8.1 mph - N/A   Overcast
7:55 AM 60.8 °F 60.8 °F 100% 30.00 in 7.0 mi NW 6.9 mph - N/A   Overcast
8:15 AM 60.8 °F 60.8 °F 100% 30.00 in 10.0 mi NW 9.2 mph - N/A   Overcast
8:35 AM 62.6 °F 62.6 °F 100% 30.00 in 10.0 mi NW 6.9 mph - N/A   Overcast
8:55 AM 60.8 °F 60.8 °F 100% 30.00 in 10.0 mi North 10.4 mph - N/A   Overcast
9:15 AM 62.6 °F 62.6 °F 100% 30.00 in 10.0 mi NNW 6.9 mph - N/A   Overcast
9:35 AM 62.6 °F 62.6 °F 100% 30.01 in 10.0 mi North 6.9 mph - N/A   Mostly Cloudy
9:55 AM 62.6 °F 60.8 °F 94% 30.01 in 10.0 mi NW 10.4 mph - N/A   Scattered Clouds
10:15 AM 62.6 °F 60.8 °F 94% 30.02 in 10.0 mi North 10.4 mph 16.1 mph N/A   Mostly Cloudy
10:35 AM 62.6 °F 59.0 °F 88% 30.02 in 10.0 mi NNW 10.4 mph 17.3 mph N/A   Mostly Cloudy
10:55 AM 64.4 °F 55.4 °F 73% 30.01 in 10.0 mi North 10.4 mph 18.4 mph N/A   Scattered Clouds
11:15 AM 60.8 °F 55.4 °F 82% 30.02 in 10.0 mi NNW 6.9 mph - N/A   Mostly Cloudy
11:35 AM 64.4 °F 55.4 °F 73% 30.02 in 10.0 mi NNW 9.2 mph - N/A   Scattered Clouds
11:55 AM 64.4 °F 55.4 °F 73% 30.02 in 10.0 mi NNW 11.5 mph - N/A   Mostly Cloudy
12:15 PM 64.4 °F 53.6 °F 68% 30.02 in 10.0 mi NNW 8.1 mph - N/A   Mostly Cloudy
12:35 PM 66.2 °F 53.6 °F 64% 30.02 in 10.0 mi NNW 8.1 mph - N/A   Scattered Clouds
12:55 PM 66.2 °F 53.6 °F 64% 30.02 in 10.0 mi WNW 8.1 mph - N/A   Scattered Clouds
1:15 PM 64.4 °F 53.6 °F 68% 30.02 in 10.0 mi North 9.2 mph - N/A   Mostly Cloudy
1:35 PM 66.2 °F 53.6 °F 64% 30.02 in 10.0 mi NW 9.2 mph - N/A   Mostly Cloudy
1:55 PM 66.2 °F 53.6 °F 64% 30.02 in 10.0 mi North 6.9 mph - N/A   Mostly Cloudy
2:15 PM 66.2 °F 51.8 °F 60% 30.01 in 10.0 mi WNW 5.8 mph - N/A   Mostly Cloudy
2:35 PM 68.0 °F 50.0 °F 52% 30.01 in 10.0 mi WNW 3.5 mph - N/A   Scattered Clouds
2:55 PM 68.0 °F 51.8 °F 56% 30.01 in 10.0 mi NW 9.2 mph - N/A   Mostly Cloudy
3:15 PM 66.2 °F 51.8 °F 60% 30.00 in 10.0 mi WNW 10.4 mph - N/A   Scattered Clouds
3:35 PM 66.2 °F 51.8 °F 60% 30.00 in 10.0 mi North 6.9 mph - N/A   Mostly Cloudy
3:55 PM 66.2 °F 51.8 °F 60% 30.00 in 10.0 mi North 9.2 mph - N/A   Overcast
4:15 PM 68.0 °F 51.8 °F 56% 30.00 in 10.0 mi North 10.4 mph 17.3 mph N/A   Mostly Cloudy
4:35 PM 66.2 °F 50.0 °F 56% 30.00 in 10.0 mi NW 8.1 mph - N/A   Scattered Clouds
4:55 PM 64.4 °F 48.2 °F 56% 30.00 in 10.0 mi NNW 9.2 mph - N/A   Scattered Clouds
5:15 PM 68.0 °F 50.0 °F 52% 30.00 in 10.0 mi NW 6.9 mph - N/A   Scattered Clouds
5:35 PM 62.6 °F 50.0 °F 63% 30.00 in 10.0 mi NW 4.6 mph - N/A   Mostly Cloudy
5:55 PM 64.4 °F 50.0 °F 59% 30.00 in 10.0 mi NW 6.9 mph - N/A   Scattered Clouds
6:15 PM 64.4 °F 50.0 °F 59% 30.00 in 10.0 mi WNW 9.2 mph - N/A   Clear
6:35 PM 64.4 °F 50.0 °F 59% 30.01 in 10.0 mi NNW 9.2 mph 18.4 mph N/A   Mostly Cloudy
6:55 PM 62.6 °F 50.0 °F 63% 30.01 in 10.0 mi NW 4.6 mph - N/A   Mostly Cloudy
7:15 PM 60.8 °F 51.8 °F 72% 30.02 in 10.0 mi North 9.2 mph - N/A   Mostly Cloudy
7:35 PM 59.0 °F 50.0 °F 72% 30.02 in 10.0 mi NNW 5.8 mph - N/A   Overcast
7:55 PM 59.0 °F 51.8 °F 77% 30.03 in 10.0 mi North 8.1 mph - N/A   Mostly Cloudy
8:15 PM 57.2 °F 50.0 °F 77% 30.04 in 10.0 mi North 6.9 mph - N/A   Overcast
8:35 PM 57.2 °F 50.0 °F 77% 30.04 in 10.0 mi NNW 5.8 mph - N/A   Overcast
8:55 PM 57.2 °F 50.0 °F 77% 30.05 in 10.0 mi NNW 6.9 mph - N/A   Overcast
9:15 PM 55.4 °F 51.8 °F 88% 30.05 in 10.0 mi North 8.1 mph - N/A   Overcast
9:35 PM 55.4 °F 51.8 °F 88% 30.06 in 10.0 mi North 5.8 mph - N/A   Overcast
9:55 PM 55.4 °F 50.0 °F 82% 30.07 in 10.0 mi North 9.2 mph - N/A   Overcast
10:15 PM 55.4 °F 50.0 °F 82% 30.07 in 10.0 mi North 6.9 mph - N/A   Overcast
10:35 PM 53.6 °F 48.2 °F 82% 30.08 in 10.0 mi North 6.9 mph - N/A   Overcast
10:55 PM 53.6 °F 46.4 °F 77% 30.08 in 10.0 mi North 4.6 mph 9.2 mph N/A   Overcast
11:15 PM 53.6 °F 46.4 °F 77% 30.08 in 10.0 mi North 6.9 mph - N/A   Overcast
11:35 PM 53.6 °F 46.4 °F 77% 30.08 in 10.0 mi North 5.8 mph - N/A   Overcast
11:55 PM 51.8 °F 46.4 °F 82% 30.08 in 10.0 mi North 5.8 mph - N/A   Overcast